createdAt,value
2018-08-14T00:02:06.770Z,2.80
2018-08-14T00:04:18.740Z,2.00
2018-08-14T00:06:31.892Z,3.33
2018-08-14T00:08:43.772Z,2.80
2018-08-14T00:10:55.669Z,3.40
2018-08-14T00:13:07.433Z,1.50
2018-08-14T00:15:19.487Z,1.40
2018-08-14T00:17:31.291Z,4.93
2018-08-14T00:19:43.142Z,2.30
2018-08-14T00:21:54.568Z,2.50
2018-08-14T00:24:07.360Z,2.90
2018-08-14T00:26:19.069Z,2.43
2018-08-14T00:28:30.749Z,2.17
2018-08-14T00:30:44.175Z,3.00
2018-08-14T00:32:57.560Z,2.73
2018-08-14T00:35:09.079Z,2.40
2018-08-14T00:37:20.582Z,2.47
2018-08-14T00:39:32.123Z,2.80
2018-08-14T00:41:44.116Z,1.60
2018-08-14T00:43:57.347Z,1.83
2018-08-14T00:46:09.020Z,1.80
2018-08-14T00:48:20.596Z,3.67
2018-08-14T00:50:32.474Z,2.23
2018-08-14T00:52:43.901Z,2.00
2018-08-14T00:54:55.445Z,1.67
2018-08-14T00:57:07.453Z,4.33
2018-08-14T00:59:18.867Z,1.50
2018-08-14T01:01:30.514Z,2.60
2018-08-14T01:03:42.270Z,1.77
2018-08-14T01:05:54.094Z,1.50
2018-08-14T01:08:05.869Z,1.83
2018-08-14T01:10:17.721Z,2.60
2018-08-14T01:12:29.609Z,2.17
2018-08-14T01:14:41.994Z,1.93
2018-08-14T01:16:53.932Z,1.37
2018-08-14T01:19:05.797Z,1.50
2018-08-14T01:21:18.124Z,1.53
2018-08-14T01:23:30.154Z,1.53
2018-08-14T01:25:42.090Z,2.30
2018-08-14T01:27:53.816Z,1.73
2018-08-14T01:30:05.820Z,1.40
2018-08-14T01:32:17.543Z,1.97
2018-08-14T01:34:28.877Z,1.87
2018-08-14T01:36:40.750Z,1.63
2018-08-14T01:38:52.697Z,1.30
2018-08-14T01:41:04.323Z,2.60
2018-08-14T01:43:16.056Z,1.30
2018-08-14T01:45:27.944Z,2.97
2018-08-14T01:47:39.743Z,1.20
2018-08-14T01:49:52.852Z,1.67
2018-08-14T01:52:04.336Z,1.67
2018-08-14T01:54:18.986Z,1.53
2018-08-14T01:56:31.111Z,1.80
2018-08-14T01:58:44.234Z,1.50
2018-08-14T02:00:56.156Z,1.43
2018-08-14T02:03:08.405Z,1.03
2018-08-14T02:05:20.007Z,1.43
2018-08-14T02:07:31.730Z,1.40
2018-08-14T02:09:43.557Z,2.00
2018-08-14T02:11:54.881Z,1.63
2018-08-14T02:14:06.465Z,1.30
2018-08-14T02:16:17.714Z,1.80
2018-08-14T02:18:29.671Z,1.67
2018-08-14T02:20:42.385Z,3.30
2018-08-14T02:22:54.334Z,1.40
2018-08-14T02:25:06.074Z,1.50
2018-08-14T02:27:17.995Z,1.70
2018-08-14T02:29:29.847Z,1.37
2018-08-14T02:31:41.449Z,2.23
2018-08-14T02:33:52.732Z,1.90
2018-08-14T02:36:04.431Z,1.70
2018-08-14T02:38:16.247Z,1.70
2018-08-14T02:40:27.587Z,3.53
2018-08-14T02:42:39.226Z,1.17
2018-08-14T02:44:51.272Z,1.67
2018-08-14T02:47:02.859Z,2.40
2018-08-14T02:49:14.137Z,1.50
2018-08-14T02:51:25.780Z,1.33
2018-08-14T02:53:37.377Z,1.30
2018-08-14T02:55:48.951Z,1.67
2018-08-14T02:58:00.353Z,1.40
2018-08-14T03:00:12.305Z,1.10
2018-08-14T03:02:24.178Z,1.87
2018-08-14T03:04:35.607Z,1.27
2018-08-14T03:06:47.446Z,1.53
2018-08-14T03:08:59.203Z,2.60
2018-08-14T03:11:10.465Z,1.20
2018-08-14T03:13:23.922Z,1.70
2018-08-14T03:15:35.997Z,1.40
2018-08-14T03:17:47.831Z,2.10
2018-08-14T03:19:59.371Z,1.40
2018-08-14T03:22:10.830Z,1.47
2018-08-14T03:24:22.420Z,1.20
2018-08-14T03:26:34.343Z,1.80
2018-08-14T03:28:46.013Z,1.60
2018-08-14T03:30:57.295Z,1.73
2018-08-14T03:33:08.939Z,1.30
2018-08-14T03:35:20.332Z,1.20
2018-08-14T03:37:31.738Z,1.20
2018-08-14T03:39:43.619Z,1.73
2018-08-14T03:41:55.363Z,1.63
2018-08-14T03:44:06.940Z,1.20
2018-08-14T03:46:18.996Z,3.07
2018-08-14T03:48:31.053Z,1.67
2018-08-14T03:50:42.758Z,1.43
2018-08-14T03:52:54.415Z,1.60
2018-08-14T03:55:06.133Z,2.10
2018-08-14T03:57:17.518Z,1.57
2018-08-14T03:59:28.947Z,1.30
2018-08-14T04:01:40.866Z,1.20
2018-08-14T04:03:53.632Z,1.50
2018-08-14T04:06:05.147Z,1.30
2018-08-14T04:08:16.916Z,1.30
2018-08-14T04:10:28.444Z,2.30
2018-08-14T04:12:39.951Z,2.43
2018-08-14T04:14:51.171Z,2.07
2018-08-14T04:17:02.689Z,1.33
2018-08-14T04:19:13.960Z,2.07
2018-08-14T04:21:25.881Z,1.30
2018-08-14T04:23:37.708Z,1.30
2018-08-14T04:25:49.006Z,1.40
2018-08-14T04:28:00.686Z,2.13
2018-08-14T04:30:12.692Z,1.40
2018-08-14T04:32:24.372Z,1.33
2018-08-14T04:34:36.184Z,1.90
2018-08-14T04:36:47.825Z,1.50
2018-08-14T04:38:59.439Z,1.47
2018-08-14T04:41:11.425Z,1.10
2018-08-14T04:43:23.030Z,1.53
2018-08-14T04:45:34.687Z,1.73
2018-08-14T04:47:46.903Z,1.43
2018-08-14T04:49:58.601Z,1.30
2018-08-14T04:52:10.405Z,1.47
2018-08-14T04:54:22.239Z,1.50
2018-08-14T04:56:33.940Z,1.50
2018-08-14T04:58:45.407Z,1.87
2018-08-14T05:00:57.722Z,1.83
2018-08-14T05:03:09.299Z,2.33
2018-08-14T05:05:20.888Z,1.60
2018-08-14T05:07:32.661Z,2.00
2018-08-14T05:09:43.981Z,1.43
2018-08-14T05:11:55.710Z,1.30
2018-08-14T05:14:07.657Z,1.63
2018-08-14T05:16:18.980Z,1.67
2018-08-14T05:18:30.933Z,1.20
2018-08-14T05:20:42.560Z,2.00
2018-08-14T05:22:54.228Z,1.90
2018-08-14T05:25:06.225Z,1.60
2018-08-14T05:27:17.781Z,1.47
2018-08-14T05:29:29.381Z,1.70
2018-08-14T05:31:40.845Z,1.13
2018-08-14T05:33:53.098Z,1.70
2018-08-14T05:36:04.596Z,1.30
2018-08-14T05:38:16.130Z,1.13
2018-08-14T05:40:27.577Z,1.40
2018-08-14T05:42:39.222Z,1.40
2018-08-14T05:44:51.139Z,1.40
2018-08-14T05:47:03.564Z,1.70
2018-08-14T05:49:15.567Z,1.20
2018-08-14T05:51:27.096Z,1.50
2018-08-14T05:56:10.997Z,1.30
2018-08-14T05:58:22.368Z,3.33
2018-08-14T06:00:33.751Z,1.07
2018-08-14T06:02:45.377Z,0.90
2018-08-14T06:04:56.909Z,1.40
2018-08-14T06:07:08.217Z,1.20
2018-08-14T06:09:19.480Z,1.80
2018-08-14T06:11:31.238Z,1.47
2018-08-14T06:13:42.763Z,1.80
2018-08-14T06:15:54.316Z,1.63
2018-08-14T06:18:06.369Z,1.13
2018-08-14T06:20:18.016Z,1.20
2018-08-14T06:22:29.496Z,1.30
2018-08-14T06:24:41.308Z,1.40
2018-08-14T06:26:52.895Z,1.37
2018-08-14T06:29:04.640Z,1.47
2018-08-14T06:31:16.487Z,1.87
2018-08-14T06:33:28.091Z,1.30
2018-08-14T06:35:39.464Z,2.83
2018-08-14T06:37:50.900Z,1.20
2018-08-14T06:40:02.631Z,1.43
2018-08-14T06:42:14.005Z,1.57
2018-08-14T06:44:25.609Z,1.40
2018-08-14T06:46:37.225Z,1.30
2018-08-14T06:48:48.790Z,1.63
2018-08-14T06:51:00.444Z,1.20
2018-08-14T06:53:12.128Z,1.03
2018-08-14T06:55:23.520Z,1.10
2018-08-14T06:57:35.054Z,1.33
2018-08-14T06:59:46.510Z,2.50
2018-08-14T07:01:57.891Z,1.10
2018-08-14T07:04:09.582Z,1.30
2018-08-14T07:06:21.334Z,1.10
2018-08-14T07:08:32.951Z,1.33
2018-08-14T07:10:44.516Z,1.00
2018-08-14T07:12:55.937Z,1.43
2018-08-14T07:15:07.539Z,1.00
2018-08-14T07:17:19.036Z,1.40
2018-08-14T07:19:30.643Z,1.80
2018-08-14T07:21:42.423Z,2.13
2018-08-14T07:23:54.345Z,1.30
2018-08-14T07:26:06.104Z,1.23
2018-08-14T07:28:17.317Z,2.07
2018-08-14T07:30:29.144Z,1.20
2018-08-14T07:32:40.634Z,1.20
2018-08-14T07:34:52.621Z,1.30
2018-08-14T07:37:04.176Z,1.23
2018-08-14T07:39:15.730Z,1.33
2018-08-14T07:41:29.638Z,1.30
2018-08-14T07:43:41.628Z,1.47
2018-08-14T07:45:53.173Z,1.60
2018-08-14T07:48:04.929Z,1.33
2018-08-14T07:50:16.945Z,0.90
2018-08-14T07:52:28.352Z,1.03
2018-08-14T07:54:39.915Z,0.93
2018-08-14T07:56:51.400Z,1.00
2018-08-14T07:59:02.923Z,1.37
2018-08-14T08:01:14.629Z,1.10
2018-08-14T08:03:26.276Z,0.97
2018-08-14T08:05:38.705Z,1.33
2018-08-14T08:07:50.775Z,1.00
2018-08-14T08:10:02.344Z,1.17
2018-08-14T08:12:13.966Z,1.10
2018-08-14T08:14:25.545Z,0.93
2018-08-14T08:16:37.221Z,1.30
2018-08-14T08:18:48.501Z,1.70
2018-08-14T08:21:00.241Z,1.20
2018-08-14T08:23:12.209Z,1.07
2018-08-14T08:25:23.610Z,1.20
2018-08-14T08:27:35.056Z,2.40
2018-08-14T08:29:46.673Z,1.00
2018-08-14T08:31:58.469Z,1.30
2018-08-14T08:34:11.027Z,1.13
2018-08-14T08:36:22.667Z,1.00
2018-08-14T08:38:34.291Z,1.10
2018-08-14T08:40:45.691Z,0.90
2018-08-14T08:42:57.065Z,1.63
2018-08-14T08:45:08.474Z,1.33
2018-08-14T08:47:20.126Z,0.93
2018-08-14T08:49:31.549Z,1.60
2018-08-14T08:51:42.963Z,1.07
2018-08-14T08:53:54.359Z,1.10
2018-08-14T08:56:06.055Z,1.00
2018-08-14T08:58:17.848Z,1.10
2018-08-14T09:00:29.308Z,1.17
2018-08-14T09:02:41.159Z,1.33
2018-08-14T09:04:52.484Z,1.63
2018-08-14T09:07:04.166Z,1.20
2018-08-14T09:09:16.810Z,1.20
2018-08-14T09:11:28.295Z,1.03
2018-08-14T09:13:39.638Z,2.10
2018-08-14T09:15:51.220Z,2.23
2018-08-14T09:18:02.885Z,1.20
2018-08-14T09:20:14.225Z,2.03
2018-08-14T09:22:25.987Z,4.23
2018-08-14T09:24:37.354Z,3.60
2018-08-14T09:26:49.591Z,4.63
2018-08-14T09:29:01.234Z,2.37
2018-08-14T09:31:13.033Z,13.87
2018-08-14T09:33:24.528Z,17.33
2018-08-14T09:35:36.122Z,11.80
2018-08-14T09:37:47.583Z,10.90
2018-08-14T09:39:59.149Z,10.03
2018-08-14T09:42:11.362Z,11.80
2018-08-14T09:44:23.125Z,11.80
2018-08-14T09:46:34.852Z,11.53
2018-08-14T09:48:46.599Z,10.23
2018-08-14T09:50:58.342Z,11.73
2018-08-14T09:53:09.777Z,11.20
2018-08-14T09:55:21.329Z,12.70
2018-08-14T09:57:33.278Z,13.03
2018-08-14T09:59:45.125Z,10.17
2018-08-14T10:02:00.863Z,9.80
2018-08-14T10:04:17.410Z,9.63
2018-08-14T10:06:33.138Z,10.87
2018-08-14T10:08:44.672Z,9.57
2018-08-14T10:10:56.175Z,12.40
2018-08-14T10:13:07.858Z,9.63
2018-08-14T10:15:19.382Z,8.90
2018-08-14T10:17:31.208Z,9.30
2018-08-14T10:19:42.917Z,8.20
2018-08-14T10:21:55.518Z,8.83
2018-08-14T10:24:06.832Z,8.50
2018-08-14T10:26:18.370Z,9.23
2018-08-14T10:28:31.702Z,8.50
2018-08-14T10:30:43.142Z,8.97
2018-08-14T10:32:54.515Z,13.13
2018-08-14T10:35:05.893Z,8.77
2018-08-14T10:37:17.594Z,7.87
2018-08-14T10:39:29.231Z,8.17
2018-08-14T10:41:41.201Z,8.13
2018-08-14T10:43:52.637Z,7.97
2018-08-14T10:46:04.239Z,7.80
2018-08-14T10:48:15.795Z,8.17
2018-08-14T10:50:27.029Z,6.90
2018-08-14T10:52:38.291Z,8.23
2018-08-14T10:54:49.149Z,7.63
2018-08-14T10:57:00.369Z,8.37
2018-08-14T10:59:11.853Z,8.57
2018-08-14T11:01:23.140Z,7.87
2018-08-14T11:03:34.597Z,8.00
2018-08-14T11:05:45.925Z,9.23
2018-08-14T11:07:57.433Z,7.80
2018-08-14T11:10:08.773Z,8.27
2018-08-14T11:12:19.987Z,8.10
2018-08-14T11:14:31.300Z,12.67
2018-08-14T11:16:42.685Z,6.93
2018-08-14T11:18:53.949Z,8.80
2018-08-14T11:21:05.079Z,8.07
2018-08-14T11:23:16.480Z,8.10
2018-08-14T11:25:28.027Z,9.40
2018-08-14T11:27:39.327Z,10.00
2018-08-14T11:29:50.654Z,11.03
2018-08-14T11:32:01.863Z,7.60
2018-08-14T11:34:13.336Z,11.13
2018-08-14T11:36:25.233Z,12.33
2018-08-14T11:38:37.015Z,11.50
2018-08-14T11:40:48.395Z,10.07
2018-08-14T11:42:59.758Z,7.00
2018-08-14T11:45:11.592Z,8.00
2018-08-14T11:47:22.399Z,9.30
2018-08-14T11:49:33.640Z,11.03
2018-08-14T11:51:44.711Z,8.33
2018-08-14T11:53:56.070Z,9.00
2018-08-14T11:56:07.663Z,9.63
2018-08-14T11:58:19.333Z,7.43
2018-08-14T12:00:30.635Z,7.60
2018-08-14T12:02:41.560Z,6.50
2018-08-14T12:04:52.703Z,6.00
2018-08-14T12:07:03.821Z,11.30
2018-08-14T12:09:14.802Z,6.23
2018-08-14T12:11:25.833Z,7.73
2018-08-14T12:13:37.067Z,6.70
2018-08-14T12:15:48.257Z,10.03
2018-08-14T12:17:59.529Z,7.93
2018-08-14T12:20:10.389Z,7.80
2018-08-14T12:22:21.462Z,6.37
2018-08-14T12:24:32.988Z,6.83
2018-08-14T12:26:44.266Z,6.70
2018-08-14T12:28:55.694Z,6.77
2018-08-14T12:31:07.075Z,13.00
2018-08-14T12:33:18.038Z,5.10
2018-08-14T12:35:29.546Z,6.07
2018-08-14T12:37:40.807Z,7.30
2018-08-14T12:39:52.487Z,6.43
2018-08-14T12:42:03.554Z,6.07
2018-08-14T12:44:15.119Z,6.87
2018-08-14T12:46:26.387Z,7.60
2018-08-14T12:48:37.612Z,6.40
2018-08-14T12:50:49.042Z,8.23
2018-08-14T12:52:59.966Z,6.73
2018-08-14T12:55:10.928Z,5.53
2018-08-14T12:57:22.664Z,6.70
2018-08-14T12:59:33.737Z,5.80
2018-08-14T13:01:45.107Z,5.50
2018-08-14T13:03:56.156Z,7.70
2018-08-14T13:06:07.759Z,6.23
2018-08-14T13:08:19.206Z,5.90
2018-08-14T13:10:30.224Z,7.57
2018-08-14T13:12:41.834Z,7.53
2018-08-14T13:14:53.395Z,7.37
2018-08-14T13:17:05.544Z,10.43
2018-08-14T13:19:17.273Z,6.27
2018-08-14T13:21:28.620Z,10.10
2018-08-14T13:23:39.882Z,7.93
2018-08-14T13:25:51.156Z,7.90
2018-08-14T13:28:02.388Z,8.40
2018-08-14T13:30:13.913Z,7.23
2018-08-14T13:32:31.477Z,6.37
2018-08-14T13:34:42.582Z,6.70
2018-08-14T13:36:53.834Z,7.70
2018-08-14T13:39:04.982Z,8.63
2018-08-14T13:41:17.116Z,7.20
2018-08-14T13:43:28.476Z,10.43
2018-08-14T13:45:39.775Z,7.60
2018-08-14T13:47:51.071Z,14.50
2018-08-14T13:50:02.293Z,7.70
2018-08-14T13:52:13.568Z,11.30
2018-08-14T13:54:25.238Z,8.30
2018-08-14T13:56:36.408Z,9.27
2018-08-14T13:58:47.578Z,7.33
2018-08-14T14:00:58.838Z,13.40
2018-08-14T14:03:10.252Z,12.77
2018-08-14T14:05:21.604Z,14.83
2018-08-14T14:07:32.828Z,18.73
2018-08-14T14:09:44.321Z,19.80
2018-08-14T14:11:55.535Z,26.13
2018-08-14T14:14:07.078Z,21.13
2018-08-14T14:16:18.208Z,25.47
2018-08-14T14:18:28.944Z,26.73
2018-08-14T14:20:40.467Z,22.40
2018-08-14T14:22:51.650Z,29.63
2018-08-14T14:25:02.474Z,26.33
2018-08-14T14:27:13.669Z,28.73
2018-08-14T14:29:24.904Z,25.20
2018-08-14T14:31:36.034Z,25.00
2018-08-14T14:33:47.450Z,21.17
2018-08-14T14:35:58.827Z,25.10
2018-08-14T14:38:10.101Z,23.20
2018-08-14T14:40:22.102Z,20.97
2018-08-14T14:42:33.248Z,23.83
2018-08-14T14:44:44.068Z,28.07
2018-08-14T14:46:55.279Z,19.57
2018-08-14T14:49:06.472Z,24.70
2018-08-14T14:51:18.040Z,26.53
2018-08-14T14:53:29.075Z,17.20
2018-08-14T14:55:40.928Z,23.93
2018-08-14T14:57:51.947Z,16.33
2018-08-14T15:00:03.609Z,21.43
2018-08-14T15:02:14.838Z,21.90
2018-08-14T15:04:25.790Z,18.77
2018-08-14T15:06:38.112Z,19.63
2018-08-14T15:08:49.330Z,25.07
2018-08-14T15:11:00.344Z,16.73
2018-08-14T15:13:11.588Z,17.93
2018-08-14T15:15:22.616Z,24.40
2018-08-14T15:17:33.702Z,18.33
2018-08-14T15:19:44.725Z,20.73
2018-08-14T15:21:55.788Z,18.77
2018-08-14T15:24:06.950Z,19.27
2018-08-14T15:26:18.415Z,21.03
2018-08-14T15:28:29.707Z,17.07
2018-08-14T15:30:40.613Z,21.70
2018-08-14T15:32:54.293Z,16.40
2018-08-14T15:35:07.338Z,17.73
2018-08-14T15:37:18.452Z,15.63
2018-08-14T15:39:30.295Z,17.00
2018-08-14T15:41:41.438Z,15.80
2018-08-14T15:43:52.592Z,17.80
2018-08-14T15:46:03.966Z,14.40
2018-08-14T15:48:16.140Z,15.40
2018-08-14T15:50:27.696Z,12.97
2018-08-14T15:52:39.019Z,21.00
2018-08-14T15:54:50.278Z,12.73
2018-08-14T15:57:01.246Z,10.97
2018-08-14T15:59:12.827Z,17.97
2018-08-14T16:01:24.079Z,14.80
2018-08-14T16:03:35.566Z,13.33
2018-08-14T16:05:47.706Z,12.60
2018-08-14T16:07:58.884Z,10.90
2018-08-14T16:10:10.203Z,11.13
2018-08-14T16:12:21.518Z,16.53
2018-08-14T16:14:32.480Z,11.77
2018-08-14T16:16:43.825Z,15.47
2018-08-14T16:18:55.147Z,11.07
2018-08-14T16:21:36.772Z,13.87
2018-08-14T16:23:48.218Z,14.20
2018-08-14T16:25:59.497Z,10.43
2018-08-14T16:28:13.133Z,12.33
2018-08-14T16:30:24.408Z,12.73
2018-08-14T16:32:35.775Z,13.07
2018-08-14T16:34:47.078Z,10.43
2018-08-14T16:36:58.105Z,12.63
2018-08-14T16:39:09.277Z,12.17
2018-08-14T16:41:21.528Z,13.53
2018-08-14T16:43:33.522Z,11.67
2018-08-14T16:45:45.516Z,16.03
2018-08-14T16:47:56.730Z,13.23
2018-08-14T16:50:07.848Z,12.80
2018-08-14T16:52:19.151Z,12.80
2018-08-14T16:54:30.827Z,9.47
2018-08-14T16:56:42.064Z,11.97
2018-08-14T16:58:54.256Z,14.90
2018-08-14T17:01:05.523Z,10.60
2018-08-14T17:03:16.782Z,11.80
2018-08-14T17:05:28.059Z,13.67
2018-08-14T17:07:39.353Z,14.60
2018-08-14T17:09:50.517Z,11.70
2018-08-14T17:12:02.731Z,10.10
2018-08-14T17:14:13.752Z,12.10
2018-08-14T17:16:25.020Z,12.70
2018-08-14T17:18:38.447Z,11.93
2018-08-14T17:20:49.792Z,9.80
2018-08-14T17:23:00.915Z,11.80
2018-08-14T17:25:12.208Z,10.90
2018-08-14T17:27:23.524Z,10.47
2018-08-14T17:29:34.695Z,10.97
2018-08-14T17:31:46.195Z,14.20
2018-08-14T17:33:57.129Z,14.57
2018-08-14T17:36:08.624Z,12.20
2018-08-14T17:38:21.745Z,12.20
2018-08-14T17:40:33.429Z,11.50
2018-08-14T17:42:46.085Z,11.03
2018-08-14T17:45:00.314Z,10.83
2018-08-14T17:47:11.772Z,12.73
2018-08-14T17:49:23.157Z,11.90
2018-08-14T17:51:34.494Z,11.20
2018-08-14T17:53:45.857Z,12.27
2018-08-14T17:55:56.940Z,13.03
2018-08-14T17:58:08.145Z,11.67
2018-08-14T18:00:20.438Z,12.30
2018-08-14T18:02:32.026Z,11.03
2018-08-14T18:04:43.832Z,14.03
2018-08-14T18:06:54.964Z,10.20
2018-08-14T18:09:07.177Z,12.53
2018-08-14T18:11:18.787Z,8.83
2018-08-14T18:13:29.963Z,9.33
2018-08-14T18:15:41.324Z,11.20
2018-08-14T18:17:54.436Z,9.67
2018-08-14T18:20:06.212Z,10.87
2018-08-14T18:22:17.514Z,12.07
2018-08-14T18:24:28.708Z,10.90
2018-08-14T18:26:39.677Z,14.10
2018-08-14T18:28:50.874Z,12.50
2018-08-14T18:31:02.039Z,12.50
2018-08-14T18:33:13.508Z,10.90
2018-08-14T18:35:24.775Z,12.10
2018-08-14T18:37:38.965Z,14.07
2018-08-14T18:39:50.409Z,12.27
2018-08-14T18:42:02.207Z,10.93
2018-08-14T18:44:17.670Z,13.43
2018-08-14T18:46:29.064Z,15.60
2018-08-14T18:48:40.420Z,12.20
2018-08-14T18:50:51.664Z,13.47
2018-08-14T18:53:02.740Z,12.20
2018-08-14T18:55:14.540Z,12.70
2018-08-14T18:57:25.880Z,11.67
2018-08-14T18:59:36.993Z,12.13
2018-08-14T19:01:50.748Z,13.50
2018-08-14T19:04:02.257Z,9.80
2018-08-14T19:06:13.339Z,10.40
2018-08-14T19:08:24.564Z,10.37
2018-08-14T19:10:36.110Z,10.70
2018-08-14T19:12:48.207Z,13.13
2018-08-14T19:15:00.138Z,11.13
2018-08-14T19:17:11.538Z,12.30
2018-08-14T19:19:23.857Z,10.70
2018-08-14T19:21:36.679Z,10.60
2018-08-14T19:23:47.901Z,10.13
2018-08-14T19:25:59.244Z,9.83
2018-08-14T19:28:10.463Z,10.40
2018-08-14T19:30:21.695Z,11.07
2018-08-14T19:32:33.114Z,9.80
2018-08-14T19:34:44.612Z,9.70
2018-08-14T19:36:56.488Z,10.07
2018-08-14T19:39:10.253Z,10.53
2018-08-14T19:41:21.526Z,9.67
2018-08-14T19:43:32.977Z,10.17
2018-08-14T19:45:45.061Z,10.20
2018-08-14T19:47:56.268Z,11.53
2018-08-14T19:50:07.622Z,11.63
2018-08-14T19:52:20.053Z,11.80
2018-08-14T19:54:31.334Z,10.53
2018-08-14T19:56:43.489Z,10.63
2018-08-14T19:58:54.637Z,9.10
2018-08-14T20:01:05.934Z,12.07
2018-08-14T20:03:17.336Z,9.90
2018-08-14T20:05:30.453Z,11.23
2018-08-14T20:07:41.747Z,12.47
2018-08-14T20:09:53.309Z,10.40
2018-08-14T20:12:04.891Z,9.83
2018-08-14T20:14:16.239Z,9.83
2018-08-14T20:16:27.353Z,9.73
2018-08-14T20:18:38.801Z,12.17
2018-08-14T20:20:49.907Z,10.20
2018-08-14T20:23:01.593Z,11.27
2018-08-14T20:25:14.061Z,11.10
2018-08-14T20:27:25.528Z,10.83
2018-08-14T20:29:36.561Z,13.90
2018-08-14T20:31:47.821Z,14.20
2018-08-14T20:33:59.115Z,10.67
2018-08-14T20:36:10.242Z,11.27
2018-08-14T20:38:21.791Z,13.00
2018-08-14T20:40:33.003Z,10.57
2018-08-14T20:42:44.383Z,12.07
2018-08-14T20:44:55.751Z,23.40
2018-08-14T20:47:07.334Z,14.73
2018-08-14T20:49:18.978Z,10.90
2018-08-14T20:51:29.931Z,12.30
2018-08-14T20:53:41.581Z,14.10
2018-08-14T20:55:52.930Z,14.43
2018-08-14T20:58:04.170Z,15.20
2018-08-14T21:00:16.292Z,11.40
2018-08-14T21:02:27.504Z,11.47
2018-08-14T21:04:38.607Z,11.97
2018-08-14T21:06:49.874Z,10.43
2018-08-14T21:09:01.310Z,11.30
2018-08-14T21:11:12.645Z,11.47
2018-08-14T21:13:23.917Z,11.20
2018-08-14T21:16:40.857Z,10.93
2018-08-14T21:18:52.884Z,10.20
2018-08-14T21:21:04.578Z,11.17
2018-08-14T21:23:15.990Z,10.67
2018-08-14T21:25:27.430Z,10.03
2018-08-14T21:27:40.383Z,10.70
2018-08-14T21:29:51.371Z,10.80
2018-08-14T21:32:02.880Z,10.10
2018-08-14T21:34:13.943Z,9.30
2018-08-14T21:36:25.788Z,10.40
2018-08-14T21:38:37.227Z,8.60
2018-08-14T21:40:50.189Z,11.40
2018-08-14T21:43:01.928Z,10.90
2018-08-14T21:45:15.579Z,10.20
2018-08-14T21:47:26.825Z,11.80
2018-08-14T21:49:38.363Z,10.80
2018-08-14T21:51:50.748Z,13.40
2018-08-14T21:54:03.119Z,11.03
2018-08-14T21:56:15.511Z,10.93
2018-08-14T21:58:31.170Z,11.73
2018-08-14T22:00:47.036Z,11.60
2018-08-14T22:02:58.296Z,15.87
2018-08-14T22:05:09.994Z,10.27
2018-08-14T22:07:20.985Z,11.00
2018-08-14T22:09:33.935Z,16.07
2018-08-14T22:11:45.085Z,10.23
2018-08-14T22:13:56.394Z,12.23
2018-08-14T22:16:07.402Z,9.33
2018-08-14T22:18:18.856Z,13.00
2018-08-14T22:20:30.145Z,10.03
2018-08-14T22:22:41.679Z,10.50
2018-08-14T22:24:52.678Z,10.60
2018-08-14T22:27:03.960Z,11.60
2018-08-14T22:29:15.252Z,11.20
2018-08-14T22:31:27.314Z,9.97
2018-08-14T22:33:38.822Z,10.30
2018-08-14T22:35:50.056Z,10.63
2018-08-14T22:38:01.514Z,12.30
2018-08-14T22:40:12.788Z,8.97
2018-08-14T22:42:25.095Z,13.10
2018-08-14T22:44:37.179Z,12.47
2018-08-14T22:46:48.771Z,10.17
2018-08-14T22:49:01.165Z,12.17
2018-08-14T22:51:12.992Z,9.20
2018-08-14T22:53:24.588Z,9.27
2018-08-14T22:55:37.146Z,22.10
2018-08-14T22:57:48.976Z,9.80
2018-08-14T23:00:01.323Z,12.87
2018-08-14T23:02:13.020Z,8.53
2018-08-14T23:04:24.778Z,11.20
2018-08-14T23:06:36.297Z,13.67
2018-08-14T23:08:47.933Z,12.77
2018-08-14T23:10:59.453Z,10.53
2018-08-14T23:13:11.647Z,12.17
2018-08-14T23:15:23.309Z,8.77
2018-08-14T23:17:34.946Z,9.60
2018-08-14T23:19:46.176Z,10.57
2018-08-14T23:21:57.871Z,10.80
2018-08-14T23:24:09.027Z,10.60
2018-08-14T23:26:20.902Z,8.30
2018-08-14T23:28:31.995Z,8.27
2018-08-14T23:30:42.972Z,10.97
2018-08-14T23:32:53.971Z,10.17
2018-08-14T23:35:05.281Z,13.13
2018-08-14T23:37:16.667Z,7.90
2018-08-14T23:39:28.038Z,6.80
2018-08-14T23:41:39.515Z,13.00
2018-08-14T23:43:50.804Z,9.43
2018-08-14T23:46:02.147Z,8.87
2018-08-14T23:48:13.393Z,8.07
2018-08-14T23:50:24.732Z,8.20
2018-08-14T23:52:35.980Z,9.80
2018-08-14T23:54:47.359Z,7.00
2018-08-14T23:56:58.721Z,9.83
2018-08-14T23:59:11.363Z,11.80
